createdAt,value
2022-12-18T00:03:20.393Z,-2.83
2022-12-18T00:08:24.102Z,-2.95
2022-12-18T00:13:27.561Z,-2.89
2022-12-18T00:18:33.049Z,-2.81
2022-12-18T00:23:38.086Z,-2.86
2022-12-18T00:28:42.122Z,-2.92
2022-12-18T00:33:47.479Z,-2.93
2022-12-18T00:38:53.645Z,-2.92
2022-12-18T00:43:57.189Z,-2.92
2022-12-18T00:49:02.321Z,-2.90
2022-12-18T00:54:06.146Z,-3.05
2022-12-18T00:59:09.531Z,-3.02
2022-12-18T01:04:14.345Z,-2.98
2022-12-18T01:09:18.309Z,-2.97
2022-12-18T01:14:21.956Z,-3.07
2022-12-18T01:19:27.110Z,-3.02
2022-12-18T01:24:30.731Z,-3.25
2022-12-18T01:29:34.583Z,-3.28
2022-12-18T01:34:39.622Z,-3.32
2022-12-18T01:39:43.382Z,-3.37
2022-12-18T01:45:03.151Z,-3.24
2022-12-18T01:50:14.539Z,-3.31
2022-12-18T01:55:21.510Z,-3.37
2022-12-18T02:00:26.034Z,-3.48
2022-12-18T02:05:42.681Z,-3.44
2022-12-18T02:10:53.436Z,-3.43
2022-12-18T02:16:04.183Z,-3.40
2022-12-18T02:21:16.033Z,-3.39
2022-12-18T02:26:26.643Z,-3.45
2022-12-18T02:31:34.179Z,-3.19
2022-12-18T02:36:40.867Z,-3.21
2022-12-18T02:41:46.088Z,-3.38
2022-12-18T02:46:53.897Z,-3.42
2022-12-18T02:52:04.530Z,-3.50
2022-12-18T02:57:19.367Z,-3.38
2022-12-18T03:02:26.266Z,-3.39
2022-12-18T03:07:39.488Z,-3.44
2022-12-18T03:12:50.555Z,-3.47
2022-12-18T03:17:59.338Z,-3.30
2022-12-18T03:23:07.034Z,-3.44
2022-12-18T03:28:16.033Z,-3.51
2022-12-18T03:33:24.095Z,-3.63
2022-12-18T03:38:27.763Z,-3.66
2022-12-18T03:43:42.658Z,-3.51
2022-12-18T03:48:50.338Z,-3.43
2022-12-18T03:53:57.442Z,-3.57
2022-12-18T03:59:05.133Z,-3.69
2022-12-18T04:04:10.878Z,-3.81
2022-12-18T04:09:15.022Z,-3.85
2022-12-18T04:14:20.040Z,-3.99
2022-12-18T04:19:23.652Z,-3.90
2022-12-18T04:24:27.009Z,-3.78
2022-12-18T04:29:32.109Z,-3.80
2022-12-18T04:34:35.706Z,-3.81
2022-12-18T04:39:39.412Z,-3.75
2022-12-18T04:44:44.451Z,-3.86
2022-12-18T04:49:48.159Z,-3.84
2022-12-18T04:54:51.796Z,-3.90
2022-12-18T04:59:56.729Z,-3.74
2022-12-18T05:05:00.279Z,-4.00
2022-12-18T05:10:04.226Z,-4.00
2022-12-18T05:15:10.549Z,-4.07
2022-12-18T05:20:14.335Z,-3.94
2022-12-18T05:25:18.008Z,-3.93
2022-12-18T05:30:23.844Z,-3.88
2022-12-18T05:35:27.475Z,-3.94
2022-12-18T05:40:31.728Z,-4.06
2022-12-18T05:45:39.503Z,-3.94
2022-12-18T05:50:46.865Z,-3.80
2022-12-18T05:55:50.647Z,-3.91
2022-12-18T06:00:55.571Z,-3.92
2022-12-18T06:05:59.264Z,-3.96
2022-12-18T06:11:02.886Z,-3.91
2022-12-18T06:16:09.148Z,-3.90
2022-12-18T06:21:13.098Z,-3.83
2022-12-18T06:26:17.276Z,-3.82
2022-12-18T06:31:22.604Z,-3.67
2022-12-18T06:36:26.270Z,-3.70
2022-12-18T06:41:29.957Z,-3.56
2022-12-18T06:46:35.012Z,-3.51
2022-12-18T06:51:38.846Z,-3.49
2022-12-18T06:56:42.573Z,-3.55
2022-12-18T07:01:47.695Z,-3.50
2022-12-18T07:06:51.471Z,-3.46
2022-12-18T07:11:55.203Z,-3.32
2022-12-18T07:17:01.203Z,-3.47
2022-12-18T07:22:05.522Z,-3.37
2022-12-18T07:27:10.304Z,-3.39
2022-12-18T07:32:15.676Z,-3.21
2022-12-18T07:37:19.349Z,-3.22
2022-12-18T07:42:34.806Z,-3.11
2022-12-18T07:47:40.011Z,-2.89
2022-12-18T07:52:43.463Z,-2.68
2022-12-18T07:57:52.518Z,-2.56
2022-12-18T08:02:59.741Z,-2.40
2022-12-18T08:08:03.435Z,-2.28
2022-12-18T08:13:06.952Z,-2.24
2022-12-18T08:18:14.440Z,-2.49
2022-12-18T08:23:18.168Z,-2.22
2022-12-18T08:28:21.941Z,-2.19
2022-12-18T08:33:27.408Z,-2.04
2022-12-18T08:38:31.168Z,-2.08
2022-12-18T08:43:52.041Z,-2.06
2022-12-18T08:48:57.788Z,-2.04
2022-12-18T08:54:01.425Z,-2.02
2022-12-18T08:59:05.586Z,-2.09
2022-12-18T09:04:10.628Z,-2.16
2022-12-18T09:09:14.385Z,-2.33
2022-12-18T09:14:17.769Z,-2.30
2022-12-18T09:19:22.853Z,-2.16
2022-12-18T09:24:26.429Z,-2.13
2022-12-18T09:29:30.197Z,-1.84
2022-12-18T09:34:35.318Z,-1.76
2022-12-18T09:39:39.086Z,-1.98
2022-12-18T09:44:48.564Z,-2.16
2022-12-18T09:49:56.772Z,-2.32
2022-12-18T09:55:04.527Z,-2.20
2022-12-18T10:00:19.012Z,-2.24
2022-12-18T10:05:38.191Z,-2.17
2022-12-18T10:10:49.136Z,-2.46
2022-12-18T10:16:03.011Z,-2.26
2022-12-18T10:21:15.686Z,-2.30
2022-12-18T10:26:20.180Z,-2.30
2022-12-18T10:31:26.725Z,-2.27
2022-12-18T10:36:32.362Z,-1.91
2022-12-18T10:41:36.173Z,-2.05
2022-12-18T10:46:40.400Z,-2.22
2022-12-18T10:51:45.633Z,-2.15
2022-12-18T10:56:49.842Z,-2.26
2022-12-18T11:01:56.523Z,-2.02
2022-12-18T11:07:04.345Z,-1.99
2022-12-18T11:12:18.452Z,-1.97
2022-12-18T11:17:25.960Z,-2.22
2022-12-18T11:22:33.236Z,-2.16
2022-12-18T11:27:37.080Z,-2.27
2022-12-18T11:32:43.251Z,-2.32
2022-12-18T11:37:53.165Z,-2.28
2022-12-18T11:43:00.945Z,-2.35
2022-12-18T11:48:09.534Z,-2.36
2022-12-18T11:53:15.794Z,-2.14
2022-12-18T11:58:32.760Z,-2.23
2022-12-18T12:03:58.553Z,-2.32
2022-12-18T12:09:14.567Z,-2.35
2022-12-18T12:14:32.301Z,-2.37
2022-12-18T12:19:46.102Z,-2.40
2022-12-18T12:25:05.010Z,-2.40
2022-12-18T12:30:11.295Z,-2.34
2022-12-18T12:35:26.941Z,-2.21
2022-12-18T12:40:57.060Z,-2.33
2022-12-18T12:46:02.776Z,-2.24
2022-12-18T12:51:13.435Z,-2.40
2022-12-18T12:56:20.934Z,-2.44
2022-12-18T13:01:35.376Z,-2.68
2022-12-18T13:06:46.404Z,-2.61
2022-12-18T13:12:08.942Z,-2.75
2022-12-18T13:17:31.422Z,-2.70
2022-12-18T13:22:37.950Z,-2.76
2022-12-18T13:28:03.310Z,-2.85
2022-12-18T13:39:35.976Z,-2.96
2022-12-18T13:44:43.037Z,-3.09
2022-12-18T13:49:46.950Z,-3.10
2022-12-18T13:54:53.785Z,-3.12
2022-12-18T13:59:59.641Z,-3.15
2022-12-18T14:05:03.563Z,-3.31
2022-12-18T14:15:45.607Z,-3.28
2022-12-18T14:20:52.922Z,-3.36
2022-12-18T14:26:00.790Z,-3.38
2022-12-18T14:31:20.616Z,-3.25
2022-12-18T14:36:25.879Z,-3.35
2022-12-18T14:41:30.187Z,-3.34
2022-12-18T14:46:38.758Z,-3.27
2022-12-18T14:51:49.681Z,-3.45
2022-12-18T14:56:59.139Z,-3.39
2022-12-18T15:02:16.139Z,-3.44
2022-12-18T15:07:24.005Z,-3.59
2022-12-18T15:12:35.574Z,-3.73
2022-12-18T15:17:40.859Z,-4.09
2022-12-18T15:22:44.392Z,-4.08
2022-12-18T15:27:50.976Z,-4.37
2022-12-18T15:33:19.516Z,-4.48
2022-12-18T15:38:24.298Z,-4.86
2022-12-18T15:43:38.059Z,-5.17
2022-12-18T15:48:44.867Z,-5.29
2022-12-18T15:53:49.747Z,-5.40
2022-12-18T15:58:53.219Z,-5.55
2022-12-18T16:03:58.593Z,-5.67
2022-12-18T16:09:02.359Z,-5.91
2022-12-18T16:14:07.015Z,-6.09
2022-12-18T16:19:12.546Z,-6.11
2022-12-18T16:24:18.448Z,-6.21
2022-12-18T16:29:28.343Z,-6.38
2022-12-18T16:34:35.859Z,-6.50
2022-12-18T16:39:40.973Z,-6.58
2022-12-18T16:44:45.086Z,-6.60
2022-12-18T16:49:52.127Z,-6.65
2022-12-18T16:54:56.269Z,-6.61
2022-12-18T17:00:04.673Z,-6.72
2022-12-18T17:05:11.038Z,-6.79
2022-12-18T17:10:14.753Z,-6.87
2022-12-18T17:15:18.345Z,-6.85
2022-12-18T17:20:25.175Z,-6.96
2022-12-18T17:25:28.947Z,-7.01
2022-12-18T17:30:32.651Z,-6.93
2022-12-18T17:35:37.613Z,-6.84
2022-12-18T17:40:46.278Z,-6.91
2022-12-18T17:45:50.172Z,-7.02
2022-12-18T17:50:55.203Z,-7.10
2022-12-18T17:56:01.614Z,-7.37
2022-12-18T18:01:06.805Z,-7.55
2022-12-18T18:06:12.024Z,-7.66
2022-12-18T18:11:35.715Z,-7.84
2022-12-18T18:16:41.101Z,-7.91
2022-12-18T18:21:47.735Z,-7.97
2022-12-18T18:26:52.054Z,-7.99
2022-12-18T18:31:55.894Z,-7.90
2022-12-18T18:37:01.122Z,-7.79
2022-12-18T18:42:05.119Z,-7.67
2022-12-18T18:47:09.580Z,-7.64
2022-12-18T18:52:17.643Z,-7.58
2022-12-18T18:57:22.724Z,-7.64
2022-12-18T19:02:28.950Z,-7.64
2022-12-18T19:07:34.049Z,-7.62
2022-12-18T19:12:54.967Z,-7.82
2022-12-18T19:17:58.558Z,-7.90
2022-12-18T19:23:03.385Z,-7.97
2022-12-18T19:28:07.450Z,-7.99
2022-12-18T19:38:43.045Z,-8.02
2022-12-18T19:43:50.134Z,-8.12
2022-12-18T19:48:54.297Z,-8.25
2022-12-18T19:54:01.675Z,-8.25
2022-12-18T19:59:06.247Z,-8.42
2022-12-18T20:04:09.724Z,-8.51
2022-12-18T20:09:15.002Z,-8.44
2022-12-18T20:14:23.252Z,-8.54
2022-12-18T20:19:28.651Z,-8.45
2022-12-18T20:24:35.561Z,-8.36
2022-12-18T20:29:39.490Z,-8.44
2022-12-18T20:34:43.052Z,-8.37
2022-12-18T20:39:48.135Z,-8.46
2022-12-18T20:44:52.098Z,-8.44
2022-12-18T20:49:56.188Z,-8.40
2022-12-18T20:55:01.332Z,-8.38
2022-12-18T21:00:06.162Z,-8.34
2022-12-18T21:05:10.454Z,-8.21
2022-12-18T21:10:15.501Z,-8.21
2022-12-18T21:15:25.284Z,-8.24
2022-12-18T21:20:32.023Z,-8.05
2022-12-18T21:25:37.055Z,-7.96
2022-12-18T21:30:40.799Z,-7.95
2022-12-18T21:35:44.440Z,-8.18
2022-12-18T21:40:49.650Z,-7.95
2022-12-18T21:45:53.525Z,-7.80
2022-12-18T21:50:57.250Z,-7.78
2022-12-18T21:56:02.406Z,-7.78
2022-12-18T22:01:06.174Z,-7.70
2022-12-18T22:06:09.890Z,-7.72
2022-12-18T22:11:14.985Z,-7.66
2022-12-18T22:16:19.862Z,-7.70
2022-12-18T22:21:29.335Z,-7.68
2022-12-18T22:26:40.153Z,-7.64
2022-12-18T22:31:44.363Z,-7.64
2022-12-18T22:36:49.784Z,-7.68
2022-12-18T22:41:55.262Z,-7.62
2022-12-18T22:47:06.915Z,-7.59
2022-12-18T22:52:11.615Z,-7.72
2022-12-18T22:57:16.656Z,-7.57
2022-12-18T23:02:20.700Z,-7.58
2022-12-18T23:07:24.663Z,-7.51
2022-12-18T23:12:29.619Z,-7.48
2022-12-18T23:17:33.251Z,-7.40
2022-12-18T23:22:36.684Z,-7.43
2022-12-18T23:27:41.793Z,-7.29
2022-12-18T23:32:45.201Z,-7.29
2022-12-18T23:37:58.562Z,-7.22
2022-12-18T23:43:03.854Z,-7.10
2022-12-18T23:48:07.651Z,-7.22
2022-12-18T23:53:11.699Z,-7.18
2022-12-18T23:58:21.976Z,-7.10
